createdAt,value
2022-10-11T00:00:09.537Z,57.05
2022-10-11T00:02:35.868Z,57.36
2022-10-11T00:05:02.206Z,57.17
2022-10-11T00:07:28.547Z,56.92
2022-10-11T00:09:54.867Z,57.48
2022-10-11T00:12:21.194Z,57.83
2022-10-11T00:14:47.521Z,58.31
2022-10-11T00:17:13.846Z,57.64
2022-10-11T00:19:40.189Z,57.38
2022-10-11T00:22:06.519Z,57.10
2022-10-11T00:24:32.840Z,57.64
2022-10-11T00:26:59.174Z,56.90
2022-10-11T00:29:25.521Z,57.13
2022-10-11T00:31:51.854Z,57.25
2022-10-11T00:34:18.196Z,58.00
2022-10-11T00:36:44.534Z,58.36
2022-10-11T00:39:10.859Z,58.41
2022-10-11T00:41:37.195Z,59.19
2022-10-11T00:44:03.526Z,58.78
2022-10-11T00:46:29.860Z,58.75
2022-10-11T00:48:56.206Z,59.74
2022-10-11T00:51:22.548Z,59.44
2022-10-11T00:53:48.878Z,58.86
2022-10-11T00:56:15.209Z,58.75
2022-10-11T00:58:41.544Z,59.03
2022-10-11T01:01:07.901Z,59.04
2022-10-11T01:03:34.253Z,58.92
2022-10-11T01:06:00.594Z,59.11
2022-10-11T01:08:26.920Z,58.21
2022-10-11T01:10:53.252Z,59.22
2022-10-11T01:13:19.590Z,59.08
2022-10-11T01:15:45.919Z,59.08
2022-10-11T01:18:12.239Z,58.56
2022-10-11T01:20:38.572Z,58.40
2022-10-11T01:23:04.902Z,58.53
2022-10-11T01:25:31.224Z,58.25
2022-10-11T01:27:57.568Z,58.97
2022-10-11T01:30:23.898Z,58.61
2022-10-11T01:32:50.229Z,58.74
2022-10-11T01:35:16.565Z,59.31
2022-10-11T01:37:42.898Z,59.07
2022-10-11T01:40:09.227Z,59.58
2022-10-11T01:42:35.551Z,58.86
2022-10-11T01:45:01.884Z,59.32
2022-10-11T01:47:28.202Z,59.33
2022-10-11T01:49:54.545Z,58.33
2022-10-11T01:52:20.887Z,59.13
2022-10-11T01:55:10.195Z,59.45
2022-10-11T01:57:33.536Z,60.19
2022-10-11T01:59:59.872Z,60.07
2022-10-11T02:02:26.205Z,59.65
2022-10-11T02:04:52.532Z,58.78
2022-10-11T02:07:18.878Z,58.92
2022-10-11T02:09:45.211Z,59.15
2022-10-11T02:12:11.538Z,59.72
2022-10-11T02:14:37.866Z,59.40
2022-10-11T02:17:04.207Z,59.13
2022-10-11T02:19:30.541Z,59.04
2022-10-11T02:21:56.875Z,59.24
2022-10-11T02:24:23.201Z,58.57
2022-10-11T02:26:49.536Z,58.82
2022-10-11T02:29:15.879Z,59.38
2022-10-11T02:31:42.213Z,58.00
2022-10-11T02:34:08.535Z,59.07
2022-10-11T02:36:34.866Z,58.76
2022-10-11T02:39:01.206Z,59.59
2022-10-11T02:41:27.541Z,59.28
2022-10-11T02:43:53.880Z,59.83
2022-10-11T02:46:20.207Z,59.22
2022-10-11T02:48:46.544Z,59.29
2022-10-11T02:51:12.872Z,59.68
2022-10-11T02:53:39.197Z,59.62
2022-10-11T02:56:05.739Z,60.28
2022-10-11T02:58:32.339Z,58.72
2022-10-11T03:00:58.687Z,59.89
2022-10-11T03:03:25.013Z,59.02
2022-10-11T03:05:51.346Z,60.17
2022-10-11T03:08:17.694Z,60.01
2022-10-11T03:10:44.021Z,60.17
2022-10-11T03:13:12.831Z,60.00
2022-10-11T03:15:41.210Z,59.36
2022-10-11T03:18:07.548Z,59.35
2022-10-11T03:20:33.892Z,59.62
2022-10-11T03:23:00.230Z,59.51
2022-10-11T03:25:26.559Z,59.88
2022-10-11T03:27:52.889Z,60.48
2022-10-11T03:30:19.212Z,60.76
2022-10-11T03:32:45.551Z,60.32
2022-10-11T03:35:11.889Z,60.08
2022-10-11T03:37:38.229Z,60.31
2022-10-11T03:40:04.557Z,60.21
2022-10-11T03:42:30.909Z,60.58
2022-10-11T03:44:57.241Z,60.21
2022-10-11T03:47:23.574Z,60.25
2022-10-11T03:49:49.911Z,60.26
2022-10-11T03:52:16.240Z,60.62
2022-10-11T03:54:42.568Z,60.79
2022-10-11T03:57:08.915Z,59.93
2022-10-11T03:59:35.249Z,60.43
2022-10-11T04:02:01.624Z,59.76
2022-10-11T04:04:28.018Z,59.87
2022-10-11T04:06:54.344Z,60.15
2022-10-11T04:09:20.687Z,59.75
2022-10-11T04:11:47.014Z,59.89
2022-10-11T04:14:13.340Z,59.68
2022-10-11T04:16:39.673Z,60.27
2022-10-11T04:19:06.009Z,60.74
2022-10-11T04:21:32.339Z,60.11
2022-10-11T04:23:58.670Z,59.76
2022-10-11T04:26:24.998Z,60.51
2022-10-11T04:28:51.372Z,60.80
2022-10-11T04:31:17.747Z,60.34
2022-10-11T04:33:44.091Z,59.90
2022-10-11T04:36:10.421Z,59.06
2022-10-11T04:38:36.750Z,60.38
2022-10-11T04:41:03.082Z,60.04
2022-10-11T04:43:29.425Z,59.91
2022-10-11T04:45:55.760Z,60.31
2022-10-11T04:48:22.094Z,60.18
2022-10-11T04:50:48.423Z,59.98
2022-10-11T04:53:14.757Z,60.05
2022-10-11T04:55:41.095Z,60.69
2022-10-11T04:58:07.416Z,60.41
2022-10-11T05:00:33.744Z,60.35
2022-10-11T05:03:00.081Z,60.44
2022-10-11T05:05:26.426Z,60.77
2022-10-11T05:07:52.758Z,60.72
2022-10-11T05:10:19.091Z,60.84
2022-10-11T05:12:45.419Z,60.68
2022-10-11T05:15:11.754Z,60.85
2022-10-11T05:17:38.085Z,60.35
2022-10-11T05:20:04.408Z,61.63
2022-10-11T05:22:30.734Z,61.23
2022-10-11T05:24:57.077Z,60.68
2022-10-11T05:27:23.414Z,60.51
2022-10-11T05:29:49.799Z,61.60
2022-10-11T05:32:16.137Z,61.47
2022-10-11T05:34:43.320Z,60.79
2022-10-11T05:37:09.645Z,60.55
2022-10-11T05:39:35.975Z,61.17
2022-10-11T05:42:04.566Z,61.33
2022-10-11T05:44:33.129Z,61.06
2022-10-11T05:46:59.508Z,61.65
2022-10-11T05:49:25.849Z,62.51
2022-10-11T05:51:52.193Z,62.31
2022-10-11T05:54:18.531Z,61.36
2022-10-11T05:56:44.877Z,61.50
2022-10-11T05:59:11.215Z,61.60
2022-10-11T06:01:37.623Z,61.74
2022-10-11T06:04:04.027Z,61.37
2022-10-11T06:06:30.368Z,62.61
2022-10-11T06:08:56.710Z,62.59
2022-10-11T06:11:23.046Z,62.09
2022-10-11T06:13:49.373Z,62.64
2022-10-11T06:16:15.719Z,63.20
2022-10-11T06:18:42.053Z,64.55
2022-10-11T06:21:08.398Z,66.61
2022-10-11T06:23:34.740Z,66.24
2022-10-11T06:26:01.078Z,66.18
2022-10-11T06:28:27.493Z,66.87
2022-10-11T06:30:53.851Z,66.84
2022-10-11T06:33:20.172Z,67.46
2022-10-11T06:35:46.500Z,66.75
2022-10-11T06:38:12.842Z,67.48
2022-10-11T06:40:39.181Z,67.45
2022-10-11T06:43:05.517Z,67.84
2022-10-11T06:45:31.848Z,68.00
2022-10-11T06:47:58.215Z,67.86
2022-10-11T06:50:47.269Z,67.58
2022-10-11T06:53:10.874Z,67.93
2022-10-11T06:55:37.217Z,70.27
2022-10-11T06:58:03.568Z,69.59
2022-10-11T07:00:29.908Z,70.62
2022-10-11T07:02:56.245Z,69.65
2022-10-11T07:05:22.612Z,69.87
2022-10-11T07:07:48.943Z,69.65
2022-10-11T07:10:15.277Z,68.67
2022-10-11T07:12:41.617Z,68.04
2022-10-11T07:15:07.950Z,70.25
2022-10-11T07:17:34.284Z,70.47
2022-10-11T07:20:00.638Z,69.40
2022-10-11T07:22:27.011Z,69.66
2022-10-11T07:24:53.403Z,69.75
2022-10-11T07:27:19.740Z,69.41
2022-10-11T07:29:46.076Z,70.11
2022-10-11T07:32:12.431Z,68.94
2022-10-11T07:34:38.764Z,68.36
2022-10-11T07:37:05.088Z,68.16
2022-10-11T07:39:31.425Z,67.60
2022-10-11T07:41:57.757Z,67.86
2022-10-11T07:44:24.100Z,68.44
2022-10-11T07:46:50.443Z,68.66
2022-10-11T07:49:16.778Z,68.65
2022-10-11T07:51:43.103Z,68.07
2022-10-11T07:54:09.441Z,67.85
2022-10-11T07:56:35.769Z,67.85
2022-10-11T07:59:02.109Z,68.91
2022-10-11T08:01:28.600Z,68.39
2022-10-11T08:03:54.988Z,68.99
2022-10-11T08:06:21.331Z,68.86
2022-10-11T08:08:47.673Z,69.12
2022-10-11T08:11:14.021Z,68.65
2022-10-11T08:13:40.351Z,67.97
2022-10-11T08:16:06.871Z,67.26
2022-10-11T08:18:33.350Z,67.35
2022-10-11T08:20:59.710Z,67.16
2022-10-11T08:23:26.045Z,67.25
2022-10-11T08:25:52.385Z,66.34
2022-10-11T08:28:19.182Z,66.53
2022-10-11T08:30:45.612Z,66.36
2022-10-11T08:33:12.089Z,67.87
2022-10-11T08:35:38.429Z,66.63
2022-10-11T08:38:04.767Z,66.00
2022-10-11T08:40:35.114Z,65.38
2022-10-11T08:43:01.781Z,66.57
2022-10-11T08:45:28.112Z,66.88
2022-10-11T08:47:54.455Z,67.45
2022-10-11T08:50:20.800Z,67.83
2022-10-11T08:52:47.148Z,68.53
2022-10-11T08:55:13.488Z,67.07
2022-10-11T08:57:39.825Z,67.26
2022-10-11T09:00:06.165Z,68.01
2022-10-11T09:02:55.761Z,67.70
2022-10-11T09:05:18.913Z,68.27
2022-10-11T09:07:45.248Z,66.85
2022-10-11T09:10:11.580Z,68.11
2022-10-11T09:12:40.845Z,66.45
2022-10-11T09:15:07.460Z,66.91
2022-10-11T09:17:33.796Z,68.46
2022-10-11T09:20:00.143Z,66.16
2022-10-11T09:22:30.410Z,67.17
2022-10-11T09:24:57.165Z,67.67
2022-10-11T09:27:38.118Z,66.13
2022-10-11T09:30:09.862Z,65.62
2022-10-11T09:32:36.195Z,65.35
2022-10-11T09:35:02.532Z,64.18
2022-10-11T09:37:28.878Z,63.93
2022-10-11T09:39:55.213Z,64.32
2022-10-11T09:42:21.556Z,63.45
2022-10-11T09:44:47.893Z,64.13
2022-10-11T09:47:14.234Z,63.22
2022-10-11T09:49:40.564Z,64.04
2022-10-11T09:52:06.901Z,64.71
2022-10-11T09:54:33.249Z,63.65
2022-10-11T09:56:59.578Z,63.58
2022-10-11T09:59:25.903Z,63.75
2022-10-11T10:01:52.260Z,63.27
2022-10-11T10:04:18.604Z,62.35
2022-10-11T10:06:44.943Z,62.14
2022-10-11T10:09:11.312Z,63.31
2022-10-11T10:11:37.653Z,62.18
2022-10-11T10:14:03.977Z,62.57
2022-10-11T10:16:30.317Z,62.50
2022-10-11T10:18:56.659Z,61.51
2022-10-11T10:21:22.997Z,62.77
2022-10-11T10:23:49.326Z,62.28
2022-10-11T10:26:15.659Z,62.28
2022-10-11T10:28:42.073Z,61.86
2022-10-11T10:31:08.496Z,62.04
2022-10-11T10:33:34.811Z,62.26
2022-10-11T10:36:01.139Z,63.98
2022-10-11T10:38:27.482Z,63.79
2022-10-11T10:40:53.814Z,63.06
2022-10-11T10:43:20.157Z,62.40
2022-10-11T10:45:46.485Z,63.48
2022-10-11T10:48:12.824Z,63.40
2022-10-11T10:50:39.170Z,63.63
2022-10-11T10:53:05.496Z,61.63
2022-10-11T10:55:31.820Z,61.00
2022-10-11T10:57:58.156Z,62.54
2022-10-11T11:00:24.481Z,62.40
2022-10-11T11:02:50.868Z,61.43
2022-10-11T11:05:17.232Z,60.90
2022-10-11T11:07:43.571Z,60.60
2022-10-11T11:10:09.918Z,60.50
2022-10-11T11:12:36.261Z,59.52
2022-10-11T11:15:02.582Z,58.93
2022-10-11T11:17:28.917Z,60.10
2022-10-11T11:19:55.245Z,58.48
2022-10-11T11:22:21.580Z,58.42
2022-10-11T11:24:47.895Z,57.56
2022-10-11T11:27:14.228Z,58.49
2022-10-11T11:29:40.556Z,57.87
2022-10-11T11:32:06.884Z,58.13
2022-10-11T11:34:33.394Z,57.86
2022-10-11T11:36:59.746Z,56.87
2022-10-11T11:39:27.130Z,55.11
2022-10-11T11:41:53.452Z,55.34
2022-10-11T11:44:23.783Z,56.75
2022-10-11T11:46:52.838Z,56.75
2022-10-11T11:49:19.163Z,56.54
2022-10-11T11:51:45.492Z,55.98
2022-10-11T11:54:11.816Z,55.18
2022-10-11T11:56:38.149Z,55.75
2022-10-11T11:59:04.492Z,56.11
2022-10-11T12:01:31.729Z,53.44
2022-10-11T12:03:58.152Z,56.12
2022-10-11T12:06:24.489Z,55.04
2022-10-11T12:08:50.908Z,54.26
2022-10-11T12:11:17.323Z,53.02
2022-10-11T12:13:43.654Z,52.94
2022-10-11T12:16:10.006Z,53.49
2022-10-11T12:18:39.344Z,54.48
2022-10-11T12:21:09.254Z,53.74
2022-10-11T12:23:35.829Z,55.37
2022-10-11T12:26:02.164Z,54.99
2022-10-11T12:28:28.520Z,54.95
2022-10-11T12:30:54.871Z,56.18
2022-10-11T12:33:21.212Z,54.28
2022-10-11T12:35:47.556Z,55.26
2022-10-11T12:38:13.884Z,56.14
2022-10-11T12:40:40.225Z,55.17
2022-10-11T12:43:06.570Z,55.56
2022-10-11T12:45:32.901Z,54.87
2022-10-11T12:47:59.250Z,54.30
2022-10-11T12:50:25.597Z,55.41
2022-10-11T12:52:51.920Z,55.72
2022-10-11T12:55:18.255Z,55.47
2022-10-11T12:57:46.487Z,54.72
2022-10-11T13:00:13.016Z,55.43
2022-10-11T13:02:39.360Z,54.93
2022-10-11T13:05:05.701Z,55.52
2022-10-11T13:07:32.046Z,54.65
2022-10-11T13:09:58.386Z,54.86
2022-10-11T13:12:24.722Z,56.12
2022-10-11T13:14:51.068Z,55.32
2022-10-11T13:17:17.413Z,56.67
2022-10-11T13:19:43.800Z,55.99
2022-10-11T13:22:10.201Z,55.45
2022-10-11T13:24:36.547Z,54.85
2022-10-11T13:27:02.883Z,56.00
2022-10-11T13:29:29.217Z,56.42
2022-10-11T13:31:55.555Z,55.21
2022-10-11T13:34:23.460Z,54.88
2022-10-11T13:36:49.981Z,55.75
2022-10-11T13:39:16.316Z,55.85
2022-10-11T13:41:42.646Z,55.00
2022-10-11T13:44:08.977Z,54.06
2022-10-11T13:46:35.317Z,53.69
2022-10-11T13:49:01.662Z,53.79
2022-10-11T13:51:27.990Z,53.65
2022-10-11T13:53:54.313Z,54.04
2022-10-11T13:56:20.648Z,54.07
2022-10-11T13:58:46.980Z,54.83
2022-10-11T14:01:13.337Z,54.18
2022-10-11T14:03:39.678Z,53.99
2022-10-11T14:06:06.335Z,51.33
2022-10-11T14:08:32.853Z,52.52
2022-10-11T14:11:03.772Z,55.29
2022-10-11T14:13:32.623Z,53.96
2022-10-11T14:15:58.953Z,52.55
2022-10-11T14:18:25.300Z,51.17
2022-10-11T14:20:51.630Z,50.87
2022-10-11T14:23:17.953Z,50.58
2022-10-11T14:25:44.315Z,50.18
2022-10-11T14:28:10.718Z,51.92
2022-10-11T14:30:37.085Z,51.00
2022-10-11T14:33:03.420Z,51.32
2022-10-11T14:35:29.749Z,50.31
2022-10-11T14:37:56.160Z,50.23
2022-10-11T14:40:22.506Z,50.09
2022-10-11T14:42:49.091Z,51.18
2022-10-11T14:45:15.498Z,50.97
2022-10-11T14:47:43.154Z,50.93
2022-10-11T14:50:09.700Z,51.95
2022-10-11T14:52:36.042Z,51.90
2022-10-11T14:55:02.388Z,52.04
2022-10-11T14:57:28.724Z,51.34
2022-10-11T14:59:55.098Z,51.80
2022-10-11T15:02:21.453Z,50.65
2022-10-11T15:04:47.795Z,51.09
2022-10-11T15:07:14.129Z,50.64
2022-10-11T15:09:40.466Z,51.30
2022-10-11T15:12:06.801Z,51.37
2022-10-11T15:14:33.127Z,52.23
2022-10-11T15:16:59.453Z,52.50
2022-10-11T15:19:25.800Z,52.06
2022-10-11T15:21:52.130Z,52.24
2022-10-11T15:24:18.463Z,51.55
2022-10-11T15:26:44.797Z,53.34
2022-10-11T15:29:11.120Z,53.20
2022-10-11T15:31:37.452Z,53.25
2022-10-11T15:34:03.784Z,52.60
2022-10-11T15:36:30.114Z,52.41
2022-10-11T15:38:56.454Z,52.21
2022-10-11T15:41:22.786Z,52.32
2022-10-11T15:43:49.112Z,52.82
2022-10-11T15:46:15.466Z,53.58
2022-10-11T15:48:41.827Z,53.06
2022-10-11T15:51:08.169Z,53.39
2022-10-11T15:53:34.502Z,53.02
2022-10-11T15:56:00.838Z,53.14
2022-10-11T15:58:27.173Z,53.15
2022-10-11T16:00:53.510Z,52.40
2022-10-11T16:03:19.842Z,53.18
2022-10-11T16:05:46.180Z,52.80
2022-10-11T16:08:12.508Z,52.69
2022-10-11T16:10:38.843Z,53.61
2022-10-11T16:13:05.176Z,53.08
2022-10-11T16:15:31.517Z,53.53
2022-10-11T16:17:57.845Z,53.27
2022-10-11T16:20:24.170Z,53.58
2022-10-11T16:22:50.486Z,53.07
2022-10-11T16:25:16.799Z,52.98
2022-10-11T16:27:43.129Z,52.89
2022-10-11T16:30:09.472Z,52.76
2022-10-11T16:32:35.811Z,52.53
2022-10-11T16:35:02.149Z,52.74
2022-10-11T16:37:28.476Z,53.10
2022-10-11T16:39:54.809Z,52.77
2022-10-11T16:42:21.140Z,52.97
2022-10-11T16:44:47.471Z,52.35
2022-10-11T16:47:13.801Z,52.28
2022-10-11T16:49:40.130Z,52.51
2022-10-11T16:52:06.453Z,52.49
2022-10-11T16:54:32.802Z,52.35
2022-10-11T16:56:59.145Z,52.96
2022-10-11T16:59:25.487Z,53.67
2022-10-11T17:01:51.817Z,53.78
2022-10-11T17:04:18.314Z,54.09
2022-10-11T17:06:44.653Z,54.02
2022-10-11T17:09:10.994Z,53.57
2022-10-11T17:11:37.325Z,53.80
2022-10-11T17:14:03.681Z,53.72
2022-10-11T17:16:30.018Z,53.74
2022-10-11T17:18:56.356Z,54.69
2022-10-11T17:21:22.709Z,54.30
2022-10-11T17:23:49.047Z,54.91
2022-10-11T17:26:15.474Z,54.54
2022-10-11T17:28:42.029Z,54.82
2022-10-11T17:31:08.974Z,54.58
2022-10-11T17:33:35.701Z,54.26
2022-10-11T17:36:02.023Z,54.95
2022-10-11T17:38:28.351Z,54.84
2022-10-11T17:40:54.685Z,54.86
2022-10-11T17:43:21.030Z,55.87
2022-10-11T17:45:47.367Z,55.50
2022-10-11T17:48:13.716Z,55.65
2022-10-11T17:50:40.054Z,55.69
2022-10-11T17:53:06.414Z,56.04
2022-10-11T17:55:32.748Z,56.30
2022-10-11T17:57:59.085Z,56.09
2022-10-11T18:00:25.421Z,56.15
2022-10-11T18:02:51.756Z,56.33
2022-10-11T18:05:18.102Z,56.50
2022-10-11T18:07:44.432Z,56.64
2022-10-11T18:10:10.782Z,56.25
2022-10-11T18:12:37.122Z,56.61
2022-10-11T18:15:03.466Z,57.10
2022-10-11T18:17:29.820Z,57.57
2022-10-11T18:19:56.156Z,57.32
2022-10-11T18:22:22.481Z,57.81
2022-10-11T18:24:48.817Z,57.85
2022-10-11T18:27:15.151Z,57.85
2022-10-11T18:29:41.476Z,57.52
2022-10-11T18:32:07.815Z,56.85
2022-10-11T18:34:34.179Z,56.49
2022-10-11T18:37:00.543Z,56.43
2022-10-11T18:39:27.036Z,56.84
2022-10-11T18:41:53.374Z,56.57
2022-10-11T18:44:19.712Z,56.34
2022-10-11T18:46:46.032Z,56.10
2022-10-11T18:49:12.373Z,55.97
2022-10-11T18:51:38.712Z,56.67
2022-10-11T18:54:05.057Z,56.56
2022-10-11T18:56:31.379Z,57.84
2022-10-11T18:58:57.745Z,58.24
2022-10-11T19:01:24.163Z,57.73
2022-10-11T19:03:50.599Z,57.94
2022-10-11T19:06:16.941Z,57.69
2022-10-11T19:08:43.315Z,57.43
2022-10-11T19:11:09.654Z,58.00
2022-10-11T19:13:36.000Z,58.11
2022-10-11T19:16:02.390Z,57.94
2022-10-11T19:18:28.769Z,57.48
2022-10-11T19:20:55.115Z,58.22
2022-10-11T19:23:21.470Z,58.31
2022-10-11T19:25:47.813Z,58.76
2022-10-11T19:28:15.825Z,58.97
2022-10-11T19:30:42.263Z,58.36
2022-10-11T19:33:08.605Z,58.71
2022-10-11T19:35:34.926Z,57.99
2022-10-11T19:38:01.280Z,58.68
2022-10-11T19:40:29.153Z,58.29
2022-10-11T19:42:57.988Z,58.23
2022-10-11T19:45:24.336Z,58.41
2022-10-11T19:47:50.670Z,58.58
2022-10-11T19:50:17.021Z,58.10
2022-10-11T19:52:45.018Z,57.63
2022-10-11T19:55:11.478Z,57.40
2022-10-11T19:57:37.809Z,58.24
2022-10-11T20:00:04.158Z,57.12
2022-10-11T20:02:30.800Z,57.60
2022-10-11T20:04:57.361Z,58.41
2022-10-11T20:07:23.714Z,57.56
2022-10-11T20:09:50.065Z,57.55
2022-10-11T20:12:16.396Z,57.87
2022-10-11T20:14:42.861Z,57.77
2022-10-11T20:17:09.223Z,57.97
2022-10-11T20:19:35.556Z,57.28
2022-10-11T20:22:01.898Z,57.04
2022-10-11T20:24:28.224Z,57.93
2022-10-11T20:26:54.641Z,59.66
2022-10-11T20:29:20.983Z,59.01
2022-10-11T20:31:47.316Z,59.80
2022-10-11T20:34:13.645Z,60.75
2022-10-11T20:36:39.986Z,61.17
2022-10-11T20:39:06.324Z,61.75
2022-10-11T20:41:32.670Z,60.62
2022-10-11T20:43:59.007Z,62.65
2022-10-11T20:46:25.347Z,62.81
2022-10-11T20:48:51.675Z,63.99
2022-10-11T20:51:18.006Z,64.27
2022-10-11T20:53:44.326Z,63.37
2022-10-11T20:56:10.659Z,64.41
2022-10-11T20:58:36.981Z,64.16
2022-10-11T21:01:03.347Z,64.37
2022-10-11T21:03:29.701Z,65.41
2022-10-11T21:05:56.040Z,65.21
2022-10-11T21:08:22.416Z,64.29
2022-10-11T21:10:48.784Z,65.76
2022-10-11T21:13:15.113Z,64.62
2022-10-11T21:15:41.442Z,64.86
2022-10-11T21:18:07.777Z,64.50
2022-10-11T21:20:34.113Z,65.21
2022-10-11T21:23:00.450Z,64.45
2022-10-11T21:25:26.786Z,65.20
2022-10-11T21:27:53.130Z,63.38
2022-10-11T21:30:19.451Z,64.02
2022-10-11T21:32:45.780Z,64.05
2022-10-11T21:35:12.103Z,64.31
2022-10-11T21:37:38.444Z,63.68
2022-10-11T21:40:04.774Z,63.92
2022-10-11T21:42:31.100Z,64.72
2022-10-11T21:44:57.560Z,64.73
2022-10-11T21:47:23.881Z,64.11
2022-10-11T21:49:50.217Z,64.72
2022-10-11T21:52:16.566Z,64.52
2022-10-11T21:54:42.897Z,65.20
2022-10-11T21:57:09.241Z,65.88
2022-10-11T21:59:35.681Z,64.83
2022-10-11T22:02:02.316Z,63.99
2022-10-11T22:04:28.744Z,63.72
2022-10-11T22:06:55.084Z,62.63
2022-10-11T22:09:21.423Z,62.72
2022-10-11T22:11:47.741Z,63.53
2022-10-11T22:14:14.077Z,63.96
2022-10-11T22:16:40.400Z,63.13
2022-10-11T22:19:06.740Z,63.00
2022-10-11T22:21:33.086Z,63.43
2022-10-11T22:23:59.412Z,62.78
2022-10-11T22:26:25.732Z,63.03
2022-10-11T22:28:52.121Z,63.11
2022-10-11T22:31:18.548Z,62.31
2022-10-11T22:36:11.122Z,62.57
2022-10-11T22:38:37.481Z,62.50
2022-10-11T22:41:03.817Z,62.73
2022-10-11T22:43:30.155Z,62.85
2022-10-11T22:45:56.493Z,62.49
2022-10-11T22:48:22.837Z,62.41
2022-10-11T22:50:49.177Z,63.99
2022-10-11T22:53:15.528Z,62.64
2022-10-11T22:55:41.871Z,62.69
2022-10-11T22:58:08.203Z,62.15
2022-10-11T23:00:34.546Z,62.05
2022-10-11T23:03:00.880Z,62.07
2022-10-11T23:05:27.217Z,61.72
2022-10-11T23:07:53.559Z,61.78
2022-10-11T23:10:20.497Z,61.67
2022-10-11T23:12:46.847Z,61.56
2022-10-11T23:15:13.201Z,60.83
2022-10-11T23:17:39.662Z,60.34
2022-10-11T23:20:06.157Z,60.97
2022-10-11T23:22:32.506Z,61.38
2022-10-11T23:24:58.849Z,60.01
2022-10-11T23:27:25.192Z,60.03
2022-10-11T23:29:51.562Z,60.69
2022-10-11T23:32:17.901Z,61.05
2022-10-11T23:34:44.242Z,60.70
2022-10-11T23:37:10.577Z,61.50
2022-10-11T23:39:36.920Z,62.47
2022-10-11T23:42:03.266Z,61.83
2022-10-11T23:44:29.604Z,62.82
2022-10-11T23:46:55.926Z,62.13
2022-10-11T23:49:22.259Z,63.39
2022-10-11T23:51:48.605Z,63.54
2022-10-11T23:54:14.992Z,63.17
2022-10-11T23:56:41.329Z,62.76
2022-10-11T23:59:07.657Z,63.22
